createdAt,value
2022-09-25T00:01:31.817Z,82.70
2022-09-25T00:04:00.115Z,82.80
2022-09-25T00:06:31.296Z,83.00
2022-09-25T00:09:01.651Z,83.10
2022-09-25T00:11:33.305Z,83.00
2022-09-25T00:14:02.478Z,83.00
2022-09-25T00:16:33.312Z,83.00
2022-09-25T00:19:19.442Z,83.10
2022-09-25T00:21:53.198Z,83.10
2022-09-25T00:24:22.679Z,83.00
2022-09-25T00:26:51.202Z,83.00
2022-09-25T00:29:21.949Z,83.00
2022-09-25T00:31:50.211Z,83.10
2022-09-25T00:34:18.695Z,83.10
2022-09-25T00:36:48.616Z,83.10
2022-09-25T00:39:16.657Z,83.00
2022-09-25T00:41:45.137Z,83.10
2022-09-25T00:44:56.665Z,83.00
2022-09-25T00:47:46.569Z,83.50
2022-09-25T00:50:35.005Z,83.40
2022-09-25T00:53:09.375Z,83.60
2022-09-25T00:55:39.263Z,83.80
2022-09-25T00:58:08.378Z,83.80
2022-09-25T01:00:37.197Z,83.80
2022-09-25T01:03:07.943Z,84.00
2022-09-25T01:05:39.390Z,84.00
2022-09-25T01:08:12.536Z,84.20
2022-09-25T01:10:42.485Z,84.20
2022-09-25T01:13:11.589Z,84.20
2022-09-25T01:15:47.018Z,84.20
2022-09-25T01:18:29.091Z,84.20
2022-09-25T01:21:09.404Z,84.40
2022-09-25T01:24:29.815Z,84.50
2022-09-25T01:27:21.447Z,84.80
2022-09-25T01:29:58.068Z,84.60
2022-09-25T01:32:34.491Z,84.50
2022-09-25T01:35:06.781Z,84.50
2022-09-25T01:37:42.079Z,84.50
2022-09-25T01:40:17.326Z,84.60
2022-09-25T01:42:50.356Z,84.60
2022-09-25T01:45:25.622Z,84.50
2022-09-25T01:47:54.901Z,84.60
2022-09-25T01:50:27.671Z,84.40
2022-09-25T01:53:01.757Z,84.40
2022-09-25T01:55:36.503Z,84.40
2022-09-25T01:58:10.433Z,84.20
2022-09-25T02:00:45.520Z,84.20
2022-09-25T02:03:19.176Z,84.20
2022-09-25T02:05:52.631Z,84.20
2022-09-25T02:08:24.806Z,84.20
2022-09-25T02:10:57.430Z,84.20
2022-09-25T02:13:29.244Z,84.20
2022-09-25T02:16:03.741Z,84.20
2022-09-25T02:18:50.385Z,84.40
2022-09-25T02:21:28.476Z,84.30
2022-09-25T02:24:04.450Z,84.50
2022-09-25T02:26:35.568Z,84.40
2022-09-25T02:29:05.576Z,84.40
2022-09-25T02:31:39.474Z,84.40
2022-09-25T02:34:13.840Z,84.60
2022-09-25T02:36:45.175Z,84.50
2022-09-25T02:39:15.581Z,84.60
2022-09-25T02:41:54.665Z,84.60
2022-09-25T02:44:34.643Z,84.80
2022-09-25T02:47:15.831Z,84.90
2022-09-25T02:49:52.204Z,84.80
2022-09-25T02:52:28.723Z,84.90
2022-09-25T02:55:04.402Z,85.00
2022-09-25T02:57:43.855Z,85.10
2022-09-25T03:00:13.417Z,85.30
2022-09-25T03:02:51.367Z,85.10
2022-09-25T03:05:23.830Z,85.20
2022-09-25T03:08:11.303Z,85.20
2022-09-25T03:10:39.739Z,85.30
2022-09-25T03:13:16.169Z,85.30
2022-09-25T03:15:48.032Z,85.60
2022-09-25T03:18:18.579Z,85.50
2022-09-25T03:20:47.157Z,85.50
2022-09-25T03:23:15.520Z,85.60
2022-09-25T03:25:49.741Z,85.50
2022-09-25T03:28:18.554Z,85.70
2022-09-25T03:30:58.401Z,85.70
2022-09-25T03:33:29.424Z,86.10
2022-09-25T03:36:10.057Z,86.00
2022-09-25T03:38:39.554Z,86.20
2022-09-25T03:41:09.954Z,86.00
2022-09-25T03:43:39.432Z,86.10
2022-09-25T03:46:09.182Z,86.10
2022-09-25T03:48:39.922Z,86.20
2022-09-25T03:51:09.450Z,86.40
2022-09-25T03:53:38.331Z,86.40
2022-09-25T03:56:10.008Z,86.50
2022-09-25T03:58:38.146Z,86.40
2022-09-25T04:01:07.636Z,86.40
2022-09-25T04:03:36.131Z,86.40
2022-09-25T04:06:07.522Z,86.50
2022-09-25T04:08:37.353Z,86.60
2022-09-25T04:11:05.884Z,86.50
2022-09-25T04:13:36.705Z,86.50
2022-09-25T04:16:08.658Z,86.50
2022-09-25T04:18:37.618Z,86.50
2022-09-25T04:21:09.382Z,86.40
2022-09-25T04:23:39.066Z,86.60
2022-09-25T04:26:08.836Z,86.40
2022-09-25T04:28:37.117Z,87.30
2022-09-25T04:31:05.823Z,86.40
2022-09-25T04:33:48.174Z,86.40
2022-09-25T04:36:19.173Z,86.60
2022-09-25T04:38:48.056Z,86.50
2022-09-25T04:41:18.094Z,86.40
2022-09-25T04:43:46.178Z,86.50
2022-09-25T04:46:21.529Z,86.50
2022-09-25T04:48:50.932Z,86.50
2022-09-25T04:51:20.937Z,86.40
2022-09-25T04:53:49.453Z,86.40
2022-09-25T04:56:17.923Z,86.40
2022-09-25T04:58:47.964Z,86.40
2022-09-25T05:01:18.156Z,86.40
2022-09-25T05:03:50.192Z,86.40
2022-09-25T05:06:20.302Z,86.50
2022-09-25T05:08:50.576Z,86.60
2022-09-25T05:11:18.656Z,86.60
2022-09-25T05:13:50.065Z,86.50
2022-09-25T05:16:18.733Z,87.40
2022-09-25T05:18:47.353Z,86.50
2022-09-25T05:21:15.375Z,86.60
2022-09-25T05:23:44.838Z,86.60
2022-09-25T05:26:13.601Z,86.50
2022-09-25T05:28:41.651Z,86.60
2022-09-25T05:31:11.211Z,86.60
2022-09-25T05:33:39.350Z,86.60
2022-09-25T05:36:09.253Z,86.70
2022-09-25T05:38:38.949Z,86.80
2022-09-25T05:41:10.723Z,86.70
2022-09-25T05:43:41.285Z,86.70
2022-09-25T05:46:10.181Z,86.80
2022-09-25T05:48:39.366Z,86.80
2022-09-25T05:51:08.591Z,86.70
2022-09-25T05:53:36.767Z,86.80
2022-09-25T05:56:06.296Z,86.90
2022-09-25T05:58:37.689Z,87.00
2022-09-25T06:01:07.450Z,87.00
2022-09-25T06:03:36.593Z,87.00
2022-09-25T06:06:05.701Z,86.90
2022-09-25T06:08:35.586Z,86.90
2022-09-25T06:11:03.935Z,86.90
2022-09-25T06:13:34.926Z,87.00
2022-09-25T06:16:06.571Z,87.00
2022-09-25T06:18:34.648Z,87.10
2022-09-25T06:21:04.782Z,87.20
2022-09-25T06:23:33.594Z,87.10
2022-09-25T06:26:02.960Z,87.00
2022-09-25T06:28:31.632Z,87.00
2022-09-25T06:31:02.163Z,86.90
2022-09-25T06:33:32.261Z,87.00
2022-09-25T06:36:00.742Z,87.00
2022-09-25T06:38:29.838Z,87.00
2022-09-25T06:41:00.792Z,87.00
2022-09-25T06:43:30.392Z,87.10
2022-09-25T06:46:03.411Z,87.10
2022-09-25T06:48:33.768Z,87.20
2022-09-25T06:51:02.570Z,87.30
2022-09-25T06:53:31.131Z,87.30
2022-09-25T06:56:00.161Z,87.40
2022-09-25T06:58:30.964Z,87.40
2022-09-25T07:00:59.091Z,87.30
2022-09-25T07:03:44.865Z,87.10
2022-09-25T07:06:17.102Z,87.10
2022-09-25T07:08:48.130Z,87.30
2022-09-25T07:11:18.248Z,87.30
2022-09-25T07:13:46.325Z,87.20
2022-09-25T07:16:16.365Z,87.20
2022-09-25T07:18:45.192Z,87.30
2022-09-25T07:21:16.599Z,87.30
2022-09-25T07:23:45.840Z,87.10
2022-09-25T07:26:16.435Z,87.20
2022-09-25T07:28:45.689Z,87.30
2022-09-25T07:31:16.689Z,87.30
2022-09-25T07:33:45.063Z,87.40
2022-09-25T07:36:16.014Z,87.30
2022-09-25T07:38:46.524Z,87.50
2022-09-25T07:41:14.965Z,87.30
2022-09-25T07:43:43.724Z,87.60
2022-09-25T07:46:13.113Z,87.60
2022-09-25T07:48:41.372Z,87.60
2022-09-25T07:51:12.363Z,87.60
2022-09-25T07:53:43.163Z,87.70
2022-09-25T07:56:12.106Z,87.60
2022-09-25T07:58:41.284Z,87.30
2022-09-25T08:01:12.711Z,87.40
2022-09-25T08:03:41.546Z,87.30
2022-09-25T08:06:12.355Z,87.20
2022-09-25T08:08:42.793Z,87.30
2022-09-25T08:11:13.527Z,87.60
2022-09-25T08:13:42.471Z,87.40
2022-09-25T08:16:14.492Z,87.20
2022-09-25T08:18:44.012Z,87.20
2022-09-25T08:21:14.693Z,87.20
2022-09-25T08:23:48.185Z,86.90
2022-09-25T08:26:17.402Z,86.70
2022-09-25T08:28:47.226Z,86.70
2022-09-25T08:31:15.536Z,86.50
2022-09-25T08:33:46.058Z,86.40
2022-09-25T08:36:15.043Z,86.30
2022-09-25T08:38:45.260Z,86.20
2022-09-25T08:41:18.306Z,86.00
2022-09-25T08:43:55.864Z,85.80
2022-09-25T08:46:45.555Z,85.80
2022-09-25T08:49:15.293Z,85.80
2022-09-25T08:51:46.345Z,85.60
2022-09-25T08:54:20.465Z,85.60
2022-09-25T08:56:51.660Z,85.50
2022-09-25T08:59:26.899Z,85.60
2022-09-25T09:01:58.582Z,85.40
2022-09-25T09:04:32.474Z,85.20
2022-09-25T09:07:26.417Z,84.90
2022-09-25T09:10:03.530Z,84.70
2022-09-25T09:12:38.032Z,84.50
2022-09-25T09:15:24.227Z,84.40
2022-09-25T09:17:52.651Z,84.10
2022-09-25T09:20:28.216Z,84.10
2022-09-25T09:22:58.629Z,83.60
2022-09-25T09:25:32.562Z,83.70
2022-09-25T09:28:25.627Z,83.80
2022-09-25T09:31:02.046Z,83.60
2022-09-25T09:33:44.706Z,83.40
2022-09-25T09:36:19.921Z,83.40
2022-09-25T09:38:55.110Z,83.60
2022-09-25T09:41:37.725Z,83.40
2022-09-25T09:44:19.701Z,83.20
2022-09-25T09:46:56.998Z,83.20
2022-09-25T09:49:33.216Z,83.00
2022-09-25T09:52:08.545Z,82.90
2022-09-25T09:54:43.409Z,82.70
2022-09-25T09:57:19.213Z,82.50
2022-09-25T09:59:51.208Z,82.10
2022-09-25T10:02:32.223Z,82.00
2022-09-25T10:05:03.802Z,81.60
2022-09-25T10:07:35.439Z,81.60
2022-09-25T10:10:05.836Z,81.70
2022-09-25T10:12:37.248Z,81.60
2022-09-25T10:15:25.919Z,81.30
2022-09-25T10:17:55.525Z,81.00
2022-09-25T10:20:25.339Z,80.90
2022-09-25T10:22:56.679Z,80.90
2022-09-25T10:25:38.857Z,80.70
2022-09-25T10:28:27.770Z,80.50
2022-09-25T10:30:56.974Z,80.10
2022-09-25T10:33:26.585Z,80.50
2022-09-25T10:35:56.288Z,80.50
2022-09-25T10:38:33.542Z,80.60
2022-09-25T10:41:05.119Z,80.40
2022-09-25T10:43:35.080Z,80.40
2022-09-25T10:46:08.812Z,79.80
2022-09-25T10:48:56.006Z,79.80
2022-09-25T10:51:28.786Z,80.40
2022-09-25T10:54:13.466Z,80.40
2022-09-25T10:56:42.794Z,79.90
2022-09-25T10:59:18.993Z,80.30
2022-09-25T11:01:50.549Z,80.00
2022-09-25T11:04:24.697Z,80.40
2022-09-25T11:06:55.315Z,80.20
2022-09-25T11:09:25.502Z,80.30
2022-09-25T11:11:55.932Z,80.10
2022-09-25T11:14:33.162Z,80.20
2022-09-25T11:17:06.298Z,80.30
2022-09-25T11:19:36.818Z,80.50
2022-09-25T11:22:17.563Z,80.80
2022-09-25T11:24:54.835Z,80.90
2022-09-25T11:27:33.813Z,80.90
2022-09-25T11:30:09.373Z,81.10
2022-09-25T11:32:51.675Z,80.90
2022-09-25T11:35:33.535Z,80.70
2022-09-25T11:38:14.245Z,80.90
2022-09-25T11:41:11.761Z,81.10
2022-09-25T11:43:55.582Z,81.70
2022-09-25T11:46:37.003Z,82.80
2022-09-25T11:49:16.133Z,82.20
2022-09-25T11:52:16.450Z,82.50
2022-09-25T11:54:59.863Z,82.50
2022-09-25T11:57:45.655Z,82.40
2022-09-25T12:00:20.233Z,82.00
2022-09-25T12:03:07.449Z,81.90
2022-09-25T12:05:52.771Z,81.80
2022-09-25T12:08:33.109Z,81.70
2022-09-25T12:11:11.836Z,81.70
2022-09-25T12:16:41.145Z,82.70
2022-09-25T12:19:23.999Z,83.60
2022-09-25T12:21:59.752Z,84.60
2022-09-25T12:24:40.951Z,84.60
2022-09-25T12:27:15.993Z,84.90
2022-09-25T12:29:57.542Z,85.40
2022-09-25T12:32:45.104Z,85.50
2022-09-25T12:35:27.020Z,86.40
2022-09-25T12:38:02.828Z,86.70
2022-09-25T12:40:38.338Z,86.70
2022-09-25T12:43:11.776Z,86.90
2022-09-25T12:45:44.667Z,87.10
2022-09-25T12:48:16.924Z,87.10
2022-09-25T12:50:52.544Z,87.60
2022-09-25T12:53:28.956Z,87.80
2022-09-25T12:56:04.287Z,88.30
2022-09-25T12:58:43.878Z,88.60
2022-09-25T13:01:18.367Z,90.00
2022-09-25T13:03:53.008Z,90.30
2022-09-25T13:06:31.202Z,90.60
2022-09-25T13:09:08.549Z,90.80
2022-09-25T13:11:45.523Z,91.00
2022-09-25T13:14:23.606Z,90.90
2022-09-25T13:16:51.929Z,90.90
2022-09-25T13:19:28.105Z,90.80
2022-09-25T13:22:08.819Z,90.70
2022-09-25T13:24:45.765Z,90.70
2022-09-25T13:27:20.156Z,90.60
2022-09-25T13:29:55.730Z,90.70
2022-09-25T13:32:29.087Z,90.70
2022-09-25T13:35:01.876Z,90.80
2022-09-25T13:37:34.473Z,90.90
2022-09-25T13:40:31.851Z,91.00
2022-09-25T13:43:19.662Z,91.00
2022-09-25T13:45:49.016Z,91.30
2022-09-25T13:48:36.639Z,91.10
2022-09-25T13:51:35.668Z,91.40
2022-09-25T13:54:25.145Z,91.30
2022-09-25T13:56:55.718Z,91.00
2022-09-25T13:59:38.754Z,90.90
2022-09-25T14:02:43.775Z,90.90
2022-09-25T14:05:22.039Z,91.10
2022-09-25T14:07:54.909Z,90.90
2022-09-25T14:10:29.019Z,90.80
2022-09-25T14:12:57.553Z,90.80
2022-09-25T14:15:30.617Z,90.80
2022-09-25T14:18:01.322Z,90.90
2022-09-25T14:20:35.965Z,90.70
2022-09-25T14:23:07.728Z,90.80
2022-09-25T14:25:41.022Z,90.70
2022-09-25T14:28:21.123Z,90.60
2022-09-25T14:31:09.479Z,90.80
2022-09-25T14:33:58.029Z,90.60
2022-09-25T14:36:35.712Z,90.80
2022-09-25T14:39:19.954Z,90.60
2022-09-25T14:42:04.843Z,90.60
2022-09-25T14:44:52.567Z,90.50
2022-09-25T14:47:21.854Z,90.60
2022-09-25T14:49:54.824Z,90.50
2022-09-25T14:52:26.335Z,90.60
2022-09-25T14:55:00.644Z,90.40
2022-09-25T14:57:33.621Z,90.40
2022-09-25T15:00:04.678Z,90.60
2022-09-25T15:02:35.660Z,90.70
2022-09-25T15:05:19.895Z,90.50
2022-09-25T15:07:48.407Z,90.60
2022-09-25T15:10:33.265Z,90.50
2022-09-25T15:13:14.792Z,90.80
2022-09-25T15:16:04.743Z,90.70
2022-09-25T15:18:33.198Z,90.50
2022-09-25T15:21:02.096Z,90.40
2022-09-25T15:23:34.827Z,90.50
2022-09-25T15:26:03.695Z,90.50
2022-09-25T15:28:41.496Z,90.60
2022-09-25T15:31:09.840Z,90.70
2022-09-25T15:33:39.518Z,90.50
2022-09-25T15:36:17.318Z,91.00
2022-09-25T15:38:52.650Z,90.70
2022-09-25T15:41:24.030Z,90.60
2022-09-25T15:44:07.681Z,90.50
2022-09-25T15:46:39.581Z,90.50
2022-09-25T15:49:07.992Z,90.40
2022-09-25T15:51:38.255Z,90.40
2022-09-25T15:54:28.971Z,90.40
2022-09-25T15:56:58.743Z,90.40
2022-09-25T15:59:31.656Z,90.30
2022-09-25T16:02:18.495Z,90.40
2022-09-25T16:04:53.123Z,90.30
2022-09-25T16:07:24.210Z,90.20
2022-09-25T16:09:53.683Z,90.00
2022-09-25T16:12:23.868Z,90.00
2022-09-25T16:14:55.549Z,89.60
2022-09-25T16:17:27.338Z,89.70
2022-09-25T16:20:08.707Z,89.70
2022-09-25T16:22:47.489Z,89.90
2022-09-25T16:25:24.709Z,90.00
2022-09-25T16:27:54.886Z,90.00
2022-09-25T16:30:25.152Z,89.30
2022-09-25T16:32:55.616Z,89.20
2022-09-25T16:35:57.588Z,89.10
2022-09-25T16:38:29.270Z,89.20
2022-09-25T16:41:05.833Z,88.40
2022-09-25T16:43:36.697Z,89.00
2022-09-25T16:46:15.391Z,88.90
2022-09-25T16:48:44.736Z,88.50
2022-09-25T16:51:21.886Z,88.60
2022-09-25T16:53:51.504Z,88.50
2022-09-25T16:56:22.642Z,88.40
2022-09-25T16:58:50.990Z,88.00
2022-09-25T17:01:21.768Z,88.00
2022-09-25T17:03:55.723Z,88.00
2022-09-25T17:06:26.355Z,87.60
2022-09-25T17:08:55.378Z,87.40
2022-09-25T17:11:24.300Z,87.50
2022-09-25T17:13:53.196Z,87.60
2022-09-25T17:16:22.783Z,87.60
2022-09-25T17:18:51.354Z,87.80
2022-09-25T17:21:20.171Z,87.50
2022-09-25T17:23:48.864Z,87.50
2022-09-25T17:26:19.191Z,87.60
2022-09-25T17:28:47.680Z,87.70
2022-09-25T17:31:20.524Z,87.60
2022-09-25T17:33:50.983Z,88.70
2022-09-25T17:36:19.907Z,87.90
2022-09-25T17:38:48.388Z,87.90
2022-09-25T17:41:20.406Z,87.80
2022-09-25T17:43:49.396Z,87.60
2022-09-25T17:46:19.482Z,87.60
2022-09-25T17:48:54.177Z,87.60
2022-09-25T17:51:25.431Z,87.60
2022-09-25T17:53:53.941Z,87.40
2022-09-25T17:56:23.068Z,87.10
2022-09-25T17:58:51.228Z,87.10
2022-09-25T18:01:22.196Z,86.90
2022-09-25T18:03:53.063Z,87.00
2022-09-25T18:06:21.434Z,86.50
2022-09-25T18:08:51.085Z,88.00
2022-09-25T18:11:19.393Z,87.00
2022-09-25T18:13:48.105Z,86.90
2022-09-25T18:16:20.170Z,86.80
2022-09-25T18:19:06.480Z,86.80
2022-09-25T18:21:53.381Z,86.70
2022-09-25T18:24:21.979Z,86.70
2022-09-25T18:26:50.659Z,86.80
2022-09-25T18:29:20.022Z,86.80
2022-09-25T18:31:49.673Z,86.90
2022-09-25T18:34:18.217Z,86.80
2022-09-25T18:36:49.234Z,86.80
2022-09-25T18:39:20.351Z,86.80
2022-09-25T18:41:50.464Z,87.00
2022-09-25T18:44:20.253Z,86.90
2022-09-25T18:46:48.324Z,86.80
2022-09-25T18:49:17.116Z,86.80
2022-09-25T18:51:45.591Z,86.60
2022-09-25T18:54:16.447Z,86.60
2022-09-25T18:56:44.957Z,86.60
2022-09-25T18:59:13.234Z,86.50
2022-09-25T19:01:42.108Z,86.40
2022-09-25T19:04:17.051Z,87.30
2022-09-25T19:06:45.130Z,86.60
2022-09-25T19:09:17.150Z,86.40
2022-09-25T19:11:45.601Z,86.40
2022-09-25T19:14:14.931Z,86.40
2022-09-25T19:16:43.143Z,86.40
2022-09-25T19:19:11.297Z,86.40
2022-09-25T19:21:41.668Z,86.40
2022-09-25T19:24:09.919Z,86.40
2022-09-25T19:29:30.394Z,86.00
2022-09-25T19:31:58.483Z,86.00
2022-09-25T19:34:27.017Z,86.10
2022-09-25T19:36:56.261Z,86.10
2022-09-25T19:39:24.623Z,86.10
2022-09-25T19:41:54.535Z,86.10
2022-09-25T19:44:24.210Z,86.10
2022-09-25T19:46:52.600Z,86.40
2022-09-25T19:49:20.994Z,86.30
2022-09-25T19:51:49.683Z,86.20
2022-09-25T19:54:17.687Z,86.40
2022-09-25T19:56:46.207Z,86.60
2022-09-25T19:59:18.806Z,86.50
2022-09-25T20:01:47.404Z,86.40
2022-09-25T20:04:18.632Z,86.30
2022-09-25T20:06:48.021Z,86.30
2022-09-25T20:09:16.267Z,86.40
2022-09-25T20:11:46.199Z,86.50
2022-09-25T20:14:15.684Z,86.50
2022-09-25T20:16:44.185Z,86.60
2022-09-25T20:19:12.748Z,86.60
2022-09-25T20:21:41.503Z,86.60
2022-09-25T20:24:10.691Z,86.60
2022-09-25T20:26:39.658Z,86.60
2022-09-25T20:29:10.083Z,86.70
2022-09-25T20:31:40.857Z,86.60
2022-09-25T20:34:13.372Z,86.70
2022-09-25T20:36:41.523Z,86.80
2022-09-25T20:39:10.204Z,86.80
2022-09-25T20:41:38.800Z,86.90
2022-09-25T20:44:08.292Z,86.80
2022-09-25T20:46:36.957Z,86.80
2022-09-25T20:49:06.916Z,86.80
2022-09-25T20:51:36.813Z,86.80
2022-09-25T20:54:07.027Z,86.90
2022-09-25T20:56:36.819Z,87.00
2022-09-25T20:59:06.407Z,86.90
2022-09-25T21:01:37.121Z,86.80
2022-09-25T21:04:10.352Z,86.90
2022-09-25T21:06:41.633Z,86.80
2022-09-25T21:09:15.867Z,86.80
2022-09-25T21:11:44.354Z,86.90
2022-09-25T21:14:17.269Z,86.90
2022-09-25T21:16:45.788Z,87.00
2022-09-25T21:19:17.016Z,87.00
2022-09-25T21:21:45.906Z,86.90
2022-09-25T21:24:15.659Z,87.00
2022-09-25T21:26:44.635Z,87.10
2022-09-25T21:29:14.496Z,87.20
2022-09-25T21:31:48.972Z,87.00
2022-09-25T21:34:20.749Z,86.80
2022-09-25T21:36:49.381Z,86.90
2022-09-25T21:39:17.573Z,87.00
2022-09-25T21:41:45.633Z,87.10
2022-09-25T21:44:15.625Z,87.20
2022-09-25T21:46:44.761Z,87.20
2022-09-25T21:49:17.072Z,87.20
2022-09-25T21:51:47.899Z,87.20
2022-09-25T21:54:17.388Z,87.30
2022-09-25T21:56:46.209Z,87.40
2022-09-25T21:59:14.477Z,87.40
2022-09-25T22:01:43.316Z,87.50
2022-09-25T22:04:15.195Z,87.50
2022-09-25T22:06:45.430Z,87.50
2022-09-25T22:09:16.790Z,87.40
2022-09-25T22:11:46.621Z,87.20
2022-09-25T22:14:16.694Z,87.20
2022-09-25T22:16:46.869Z,87.10
2022-09-25T22:19:16.962Z,87.10
2022-09-25T22:21:46.802Z,87.00
2022-09-25T22:24:17.047Z,87.00
2022-09-25T22:26:47.737Z,86.90
2022-09-25T22:29:16.912Z,86.80
2022-09-25T22:31:45.925Z,86.90
2022-09-25T22:34:18.711Z,86.80
2022-09-25T22:36:47.384Z,86.80
2022-09-25T22:39:19.457Z,86.80
2022-09-25T22:41:52.393Z,86.80
2022-09-25T22:44:20.994Z,86.70
2022-09-25T22:46:49.184Z,86.70
2022-09-25T22:49:17.491Z,86.60
2022-09-25T22:51:46.115Z,86.60
2022-09-25T22:54:16.177Z,86.60
2022-09-25T22:56:45.432Z,86.60
2022-09-25T22:59:16.594Z,86.50
2022-09-25T23:01:46.769Z,86.60
2022-09-25T23:04:16.756Z,86.60
2022-09-25T23:06:45.128Z,86.60
2022-09-25T23:09:14.971Z,86.60
2022-09-25T23:11:46.206Z,86.40
2022-09-25T23:14:17.084Z,86.40
2022-09-25T23:16:46.365Z,86.40
2022-09-25T23:19:15.289Z,86.10
2022-09-25T23:21:44.513Z,86.30
2022-09-25T23:24:14.243Z,86.20
2022-09-25T23:26:43.217Z,86.10
2022-09-25T23:29:14.181Z,86.10
2022-09-25T23:31:42.804Z,86.10
2022-09-25T23:34:11.722Z,86.10
2022-09-25T23:36:40.372Z,86.00
2022-09-25T23:39:09.939Z,86.00
2022-09-25T23:41:39.355Z,86.10
2022-09-25T23:44:09.237Z,86.10
2022-09-25T23:46:41.177Z,86.10
2022-09-25T23:49:10.226Z,86.10
2022-09-25T23:51:38.979Z,85.90
2022-09-25T23:54:07.626Z,85.90
2022-09-25T23:56:37.082Z,85.90
2022-09-25T23:59:06.592Z,85.90
